Neuburg — 5BQJ2 — position and weather

sailwx.info

Track history (hours):
 
Tides and Currents Weather Stations Pressure Air Temp Water Temp Dewpoint Dewpoint Depression Visibility Wind Speed Wind Dir Waves Ship Positions

Neuburg

Last reported at 2014-Nov-01 02:33 UTC. Time now 2014-Nov-01 03:26 UTC.
Position N 37°18' W 000°58'.

Length 142 m; draft 7.2 m.

Type: Ship (hazmat cat A). MMSI: 212740000.

Date/timePositionNaut miles runAvg speedWind from/ knotsBaromVisibWave heightAir tempDewpointWater temp
2014-Nov-01 02:33N 37°18' W 000°58'1818.1
2014-Nov-01 01:33N 37°30' W 000°40'1716.7
2014-Nov-01 00:33N 37°44' W 000°30'1817.7
2014-Oct-31 23:33N 38°01' W 000°25'3 0.2
2014-Oct-31 04:32N 38°04' W 000°23'1313.4
2014-Oct-31 03:33N 37°51' W 000°26'1413.7
2014-Oct-31 02:33N 37°37' W 000°29'1413.9
2014-Oct-31 01:31N 37°26' W 000°41'1313.9
2014-Oct-31 00:33N 37°17' W 000°53'7414.7
2014-Oct-30 19:33N 36°28' W 002°01'15515.2
2014-Oct-30 09:25N 36°00' W 005°10'1416.4
2014-Oct-30 08:33N 35°58' W 005°27'13516.8
2014-Oct-30 00:33N 34°39' W 007°41'12216.5
2014-Oct-29 17:10N 33°20' W 009°32'1315.9
2014-Oct-29 16:23N 33°11' W 009°44'  
2014-Oct-26 00:05N 35°57' W 005°35'917.2
2014-Oct-25 23:33N 36°01' W 005°25'21217.0
2014-Oct-25 11:07N 37°06' W 001°14'1018.4
2014-Oct-25 10:33N 37°13' W 001°04'1818.1
2014-Oct-25 09:33N 37°25' W 000°47'1818.2
2014-Oct-25 08:34N 37°38' W 000°32'1918.5
2014-Oct-25 07:33N 37°56' W 000°26'23 2.8
2014-Oct-24 23:08N 38°20' W 000°30'0 0.0
2014-Oct-24 22:32N 38°20' W 000°30'0 0.0
2014-Oct-24 21:32N 38°20' W 000°30'0 0.0
2014-Oct-24 20:32N 38°20' W 000°30'1 0.2
2014-Oct-24 15:33N 38°19' W 000°30'1514.7
2014-Oct-24 14:33N 38°05' W 000°23'1717.4
2014-Oct-24 13:33N 37°48' W 000°27'1716.9
2014-Oct-24 12:33N 37°32' W 000°33'1917.4
2014-Oct-24 11:29N 37°19' W 000°51'22217.2
2014-Oct-23 22:33N 36°02' W 005°10'23916.8
2014-Oct-23 08:18N 33°39' W 009°05'1317.4
2014-Oct-23 07:33N 33°31' W 009°17'3517.5
2014-Oct-23 05:31N 33°08' W 009°49'1717.6
2014-Oct-23 04:34N 32°57' W 010°05'  
Track history (hours):
 
Tides and Currents Weather Stations Pressure Air Temp Water Temp Dewpoint Dewpoint Depression Visibility Wind Speed Wind Dir Waves Ship Positions

Neuburg

Last reported at 2014-Nov-01 02:33 UTC. Time now 2014-Nov-01 03:26 UTC.
Position N 37°18' W 000°58'.

Length 142 m; draft 7.2 m.

Type: Ship (hazmat cat A). MMSI: 212740000.

Date/timePositionNaut miles runAvg speedWind from/ knotsBaromVisibWave heightAir tempDewpointWater temp
2014-Nov-01 02:33N 37°18' W 000°58'1818.1
2014-Nov-01 01:33N 37°30' W 000°40'1716.7
2014-Nov-01 00:33N 37°44' W 000°30'1817.7
2014-Oct-31 23:33N 38°01' W 000°25'3 0.2
2014-Oct-31 04:32N 38°04' W 000°23'1313.4
2014-Oct-31 03:33N 37°51' W 000°26'1413.7
2014-Oct-31 02:33N 37°37' W 000°29'1413.9
2014-Oct-31 01:31N 37°26' W 000°41'1313.9
2014-Oct-31 00:33N 37°17' W 000°53'7414.7
2014-Oct-30 19:33N 36°28' W 002°01'15515.2
2014-Oct-30 09:25N 36°00' W 005°10'1416.4
2014-Oct-30 08:33N 35°58' W 005°27'13516.8
2014-Oct-30 00:33N 34°39' W 007°41'12216.5
2014-Oct-29 17:10N 33°20' W 009°32'1315.9
2014-Oct-29 16:23N 33°11' W 009°44'  
2014-Oct-26 00:05N 35°57' W 005°35'917.2
2014-Oct-25 23:33N 36°01' W 005°25'21217.0
2014-Oct-25 11:07N 37°06' W 001°14'1018.4
2014-Oct-25 10:33N 37°13' W 001°04'1818.1
2014-Oct-25 09:33N 37°25' W 000°47'1818.2
2014-Oct-25 08:34N 37°38' W 000°32'1918.5
2014-Oct-25 07:33N 37°56' W 000°26'23 2.8
2014-Oct-24 23:08N 38°20' W 000°30'0 0.0
2014-Oct-24 22:32N 38°20' W 000°30'0 0.0
2014-Oct-24 21:32N 38°20' W 000°30'0 0.0
2014-Oct-24 20:32N 38°20' W 000°30'1 0.2
2014-Oct-24 15:33N 38°19' W 000°30'1514.7
2014-Oct-24 14:33N 38°05' W 000°23'1717.4
2014-Oct-24 13:33N 37°48' W 000°27'1716.9
2014-Oct-24 12:33N 37°32' W 000°33'1917.4
2014-Oct-24 11:29N 37°19' W 000°51'22217.2
2014-Oct-23 22:33N 36°02' W 005°10'23916.8
2014-Oct-23 08:18N 33°39' W 009°05'1317.4
2014-Oct-23 07:33N 33°31' W 009°17'3517.5
2014-Oct-23 05:31N 33°08' W 009°49'1717.6
2014-Oct-23 04:34N 32°57' W 010°05'  

Dump ship's entire track history